METAR Data
IDs: Format: Raw Decoded Include TAF

Data at: 0855 UTC 10 Dec 2022

METAR for:KHLX (Hillsville/Twin Cnty, VA, US)
Text:KHLX 100835Z AUTO 18004KT 3/4SM HZ OVC002 04/01 A3017 RMK AO2 T00400012
Temperature: 4.0°C ( 39°F)
Dewpoint: 1.2°C ( 34°F) [RH = 82%]
Pressure (altimeter):30.17 inches Hg (1021.8 mb)
Winds:from the S (180 degrees) at 5 MPH (4 knots; 2.1 m/s)
Visibility: 0.75 sm ( 1.21 km)
Ceiling:200 feet AGL
Clouds: overcast cloud deck at 200 feet AGL
Weather:HZ (haze)
QC Flag:automated observation with no human augmentation